Lavalette, WV

05:56 AM EDT del 25 Luglio 2016 (GMT -0400)
74 Gideon Ln | | Change Station
Avvisi attivi: Heat Advisory

Alt. 587 ft 38.27 °N, 82.46 °W | Updated 13 minutes ago

Clear
Sereno
72.9 °F
Sembra 72.9 °F
N
0.0
Vento Variabile Vento da NE

Oggi
Massima -- | Minima -- °F
--% Possibilità di precip.
Ieri
Massima -- | Minima -- °F
Precip. -- in
Pressione 29.99 in
Visibilità 7.0 miglia
Nuvole Sereno
Punto di rugiada 70 °F
Umidità 92%
Piovosità 0.00 in
Spessore del manto nevoso Non disponibile.
6:26 AM 8:45 PM
Gobba a levante, 67% visible
METAR KHTS 250951Z 20003KT 7SM CLR 25/24 A3002 RMK AO2 SLP153 T02500239
Pressione 29.99 in
Visibilità 7.0 miglia
Nuvole Sereno
Punto di rugiada 70 °F
Umidità 92%
Piovosità 0.00 in
Spessore del manto nevoso Non disponibile.
6:26 AM 8:45 PM
Gobba a levante, 67% visible
METAR KHTS 250951Z 20003KT 7SM CLR 25/24 A3002 RMK AO2 SLP153 T02500239

10-Day Weather Forecast

Almanac

Astronomia

Jul. 25, 2016 Alba Tramonto
Ora attuale
Crepuscolo civile
Crepuscolo nautico
Crepuscolo astronomico
Luna
Estensione della luce visibile
Lunghezza del giorno
Tomorrow will be .
, % of the Moon is Illuminated

Gli estremi di oggi

State Highs State Lows

Community

WunderPhotos

Upload Photos

1,927,289 foto caricate!

WunderBlog® & News

Nearby

Qualità dell'aria

  Qualità dell'aria Indice AQ Inquinante
Not available.

Profondità neve

Stazione Profondità Altitudine

Attività sismica

Città  Distanza Mag. Data & Ora
Minimo Magnitudo Mostrato è 2.5.

Temperature delle acque costiere

Località Temperatura

Stations

Stazioni meteo nelle vicinanze

Ubicazione della stazione Temp. Raffreddamento del vento Punto di rugiada Umidità Vento Precip. Alt. Aggiornato Tipo
                   

Watches & Warnings

Heat Advisory
Issued: 02:19 EDT Jul. 25, 2016 – National Weather Service

... Heat advisory remains in effect from noon today to 8 PM EDT
this evening...

* heat index values... 100 to 104 due to temperatures in the
lower 90s... and dewpoints in the lower 70s.

* Timing... noon to 8 PM EDT. Mid to late afternoon will be the
hottest time period.

* Impacts... heat stroke... heat exhaustion and other heat related
illnesses can quickly occur if you spend a significant amount
of time outdoors.

Precautionary/preparedness actions...

A heat advisory means that a period of hot temperatures is
expected. The combination of hot temperatures and high humidity
will combine to create a situation in which heat illnesses are
possible. Drink plenty of fluids... stay in an air-conditioned
room... stay out of the sun... and check up on relatives and
neighbors.

To reduce risk during outdoor work... the occupational safety and
health administration recommends scheduling frequent rest breaks
in shaded or air conditioned environments. Anyone overcome by
heat should be moved to a cool and shaded location. Heat stroke
is an emergency... call 9 1 1.